sensor_id;sensor_type;location;lat;lon;timestamp;pressure;altitude;pressure_sealevel;temperature;humidity
31346;BME280;21711;49.708;18.568;2023-08-07T00:02:12;96191.06;;;14.71;100.00
31346;BME280;21711;49.708;18.568;2023-08-07T00:04:40;96197.94;;;14.72;100.00
31346;BME280;21711;49.708;18.568;2023-08-07T00:07:07;96197.63;;;14.73;100.00
31346;BME280;21711;49.708;18.568;2023-08-07T00:09:34;96194.72;;;14.66;100.00
31346;BME280;21711;49.708;18.568;2023-08-07T00:12:02;96197.19;;;14.71;100.00
31346;BME280;21711;49.708;18.568;2023-08-07T00:14:30;96195.75;;;14.74;100.00
31346;BME280;21711;49.708;18.568;2023-08-07T00:16:58;96204.47;;;14.83;100.00
31346;BME280;21711;49.708;18.568;2023-08-07T00:19:25;96199.78;;;14.80;100.00
31346;BME280;21711;49.708;18.568;2023-08-07T00:21:52;96201.47;;;14.85;100.00
31346;BME280;21711;49.708;18.568;2023-08-07T00:24:20;96205.22;;;14.84;100.00
31346;BME280;21711;49.708;18.568;2023-08-07T00:26:47;96200.81;;;14.88;100.00
31346;BME280;21711;49.708;18.568;2023-08-07T00:29:15;96202.03;;;14.91;100.00
31346;BME280;21711;49.708;18.568;2023-08-07T00:31:42;96194.16;;;14.82;100.00
31346;BME280;21711;49.708;18.568;2023-08-07T00:34:09;96199.47;;;14.82;100.00
31346;BME280;21711;49.708;18.568;2023-08-07T00:36:37;96196.13;;;14.85;100.00
31346;BME280;21711;49.708;18.568;2023-08-07T00:39:04;96196.59;;;14.87;100.00
31346;BME280;21711;49.708;18.568;2023-08-07T00:41:32;96200.22;;;14.82;100.00
31346;BME280;21711;49.708;18.568;2023-08-07T00:43:59;96201.03;;;14.83;100.00
31346;BME280;21711;49.708;18.568;2023-08-07T00:46:28;96192.78;;;14.76;100.00
31346;BME280;21711;49.708;18.568;2023-08-07T00:48:56;96206.66;;;14.81;100.00
31346;BME280;21711;49.708;18.568;2023-08-07T00:51:24;96207.13;;;14.83;100.00
31346;BME280;21711;49.708;18.568;2023-08-07T00:53:51;96201.84;;;14.96;100.00
31346;BME280;21711;49.708;18.568;2023-08-07T00:56:19;96198.75;;;14.94;100.00
31346;BME280;21711;49.708;18.568;2023-08-07T00:58:46;96189.53;;;14.91;100.00
31346;BME280;21711;49.708;18.568;2023-08-07T01:01:14;96188.16;;;14.85;100.00
31346;BME280;21711;49.708;18.568;2023-08-07T01:03:41;96195.69;;;14.83;100.00
31346;BME280;21711;49.708;18.568;2023-08-07T01:06:09;96187.84;;;14.86;100.00
31346;BME280;21711;49.708;18.568;2023-08-07T01:08:37;96187.72;;;14.83;100.00
31346;BME280;21711;49.708;18.568;2023-08-07T01:14:36;96191.06;;;14.71;100.00
31346;BME280;21711;49.708;18.568;2023-08-07T01:17:10;96196.81;;;14.82;100.00
31346;BME280;21711;49.708;18.568;2023-08-07T01:19:38;96188.53;;;14.75;100.00
31346;BME280;21711;49.708;18.568;2023-08-07T01:22:12;96195.56;;;14.79;100.00
31346;BME280;21711;49.708;18.568;2023-08-07T01:24:45;96196.50;;;14.75;100.00
31346;BME280;21711;49.708;18.568;2023-08-07T01:27:22;96196.50;;;14.83;100.00
31346;BME280;21711;49.708;18.568;2023-08-07T01:30:26;96196.81;;;14.82;100.00
31346;BME280;21711;49.708;18.568;2023-08-07T01:35:55;96201.53;;;14.76;100.00
31346;BME280;21711;49.708;18.568;2023-08-07T01:38:25;96204.06;;;14.72;100.00
31346;BME280;21711;49.708;18.568;2023-08-07T01:40:54;96213.97;;;14.63;100.00
31346;BME280;21711;49.708;18.568;2023-08-07T01:43:23;96211.56;;;14.70;100.00
31346;BME280;21711;49.708;18.568;2023-08-07T01:45:51;96210.13;;;14.73;100.00
31346;BME280;21711;49.708;18.568;2023-08-07T01:48:18;96217.88;;;14.66;100.00
31346;BME280;21711;49.708;18.568;2023-08-07T01:50:46;96217.66;;;14.50;100.00
31346;BME280;21711;49.708;18.568;2023-08-07T01:53:13;96223.06;;;14.62;100.00
31346;BME280;21711;49.708;18.568;2023-08-07T01:55:41;96216.72;;;14.54;100.00
31346;BME280;21711;49.708;18.568;2023-08-07T01:58:08;96215.84;;;14.63;100.00
31346;BME280;21711;49.708;18.568;2023-08-07T02:00:36;96212.63;;;14.57;100.00
31346;BME280;21711;49.708;18.568;2023-08-07T02:03:03;96216.44;;;14.68;100.00
31346;BME280;21711;49.708;18.568;2023-08-07T02:05:30;96207.81;;;14.50;100.00
31346;BME280;21711;49.708;18.568;2023-08-07T02:07:58;96210.53;;;14.41;100.00
31346;BME280;21711;49.708;18.568;2023-08-07T02:10:26;96213.34;;;14.45;100.00
31346;BME280;21711;49.708;18.568;2023-08-07T02:12:53;96213.34;;;14.45;100.00
31346;BME280;21711;49.708;18.568;2023-08-07T02:15:20;96215.31;;;14.48;100.00
31346;BME280;21711;49.708;18.568;2023-08-07T02:17:50;96220.41;;;14.41;100.00
31346;BME280;21711;49.708;18.568;2023-08-07T02:20:18;96216.03;;;14.36;100.00
31346;BME280;21711;49.708;18.568;2023-08-07T02:22:45;96220.06;;;14.42;100.00
31346;BME280;21711;49.708;18.568;2023-08-07T02:25:13;96227.41;;;14.45;100.00
31346;BME280;21711;49.708;18.568;2023-08-07T02:27:40;96221.75;;;14.47;100.00
31346;BME280;21711;49.708;18.568;2023-08-07T02:30:08;96221.84;;;14.29;100.00
31346;BME280;21711;49.708;18.568;2023-08-07T02:32:35;96220.63;;;14.27;100.00
31346;BME280;21711;49.708;18.568;2023-08-07T02:35:03;96220.81;;;14.22;100.00
31346;BME280;21711;49.708;18.568;2023-08-07T02:37:30;96217.50;;;14.25;100.00
31346;BME280;21711;49.708;18.568;2023-08-07T02:39:58;96222.97;;;14.28;100.00
31346;BME280;21711;49.708;18.568;2023-08-07T02:42:25;96210.91;;;14.31;100.00
31346;BME280;21711;49.708;18.568;2023-08-07T02:44:52;96225.44;;;14.33;100.00
31346;BME280;21711;49.708;18.568;2023-08-07T02:47:20;96222.66;;;14.30;100.00
31346;BME280;21711;49.708;18.568;2023-08-07T02:49:47;96223.94;;;14.24;100.00
31346;BME280;21711;49.708;18.568;2023-08-07T02:52:14;96226.59;;;14.24;100.00
31346;BME280;21711;49.708;18.568;2023-08-07T02:54:42;96230.63;;;14.30;100.00
31346;BME280;21711;49.708;18.568;2023-08-07T02:57:09;96226.84;;;14.31;100.00
31346;BME280;21711;49.708;18.568;2023-08-07T02:59:36;96232.50;;;14.29;100.00
31346;BME280;21711;49.708;18.568;2023-08-07T03:02:04;96226.13;;;14.22;100.00
31346;BME280;21711;49.708;18.568;2023-08-07T03:04:31;96229.78;;;14.08;100.00
31346;BME280;21711;49.708;18.568;2023-08-07T03:07:00;96227.31;;;14.03;100.00
31346;BME280;21711;49.708;18.568;2023-08-07T03:09:27;96226.88;;;14.01;100.00
31346;BME280;21711;49.708;18.568;2023-08-07T03:11:55;96223.72;;;14.07;100.00
31346;BME280;21711;49.708;18.568;2023-08-07T03:14:22;96227.00;;;14.04;100.00
31346;BME280;21711;49.708;18.568;2023-08-07T03:16:50;96243.25;;;14.03;100.00
31346;BME280;21711;49.708;18.568;2023-08-07T03:19:17;96245.47;;;14.01;100.00
31346;BME280;21711;49.708;18.568;2023-08-07T03:21:48;96242.94;;;14.04;100.00
31346;BME280;21711;49.708;18.568;2023-08-07T03:24:16;96239.69;;;13.99;100.00
31346;BME280;21711;49.708;18.568;2023-08-07T03:26:43;96236.75;;;13.91;100.00
31346;BME280;21711;49.708;18.568;2023-08-07T03:29:12;96247.25;;;13.88;100.00
31346;BME280;21711;49.708;18.568;2023-08-07T03:31:42;96243.31;;;13.85;100.00
31346;BME280;21711;49.708;18.568;2023-08-07T03:34:10;96237.38;;;13.88;100.00
31346;BME280;21711;49.708;18.568;2023-08-07T03:36:38;96239.72;;;13.90;100.00
31346;BME280;21711;49.708;18.568;2023-08-07T03:39:05;96234.59;;;13.85;100.00
31346;BME280;21711;49.708;18.568;2023-08-07T03:41:32;96240.03;;;13.88;100.00
31346;BME280;21711;49.708;18.568;2023-08-07T03:44:00;96240.34;;;13.87;100.00
31346;BME280;21711;49.708;18.568;2023-08-07T03:46:28;96246.72;;;13.94;100.00
31346;BME280;21711;49.708;18.568;2023-08-07T03:48:56;96247.84;;;13.93;100.00
31346;BME280;21711;49.708;18.568;2023-08-07T03:51:24;96252.38;;;13.93;100.00
31346;BME280;21711;49.708;18.568;2023-08-07T03:53:53;96250.50;;;13.93;100.00
31346;BME280;21711;49.708;18.568;2023-08-07T03:56:21;96253.56;;;14.04;100.00
31346;BME280;21711;49.708;18.568;2023-08-07T03:58:48;96259.69;;;13.96;100.00
31346;BME280;21711;49.708;18.568;2023-08-07T04:01:19;96257.03;;;14.05;100.00
31346;BME280;21711;49.708;18.568;2023-08-07T04:03:47;96256.38;;;14.08;100.00
31346;BME280;21711;49.708;18.568;2023-08-07T04:06:15;96270.28;;;14.14;100.00
31346;BME280;21711;49.708;18.568;2023-08-07T04:08:45;96261.97;;;14.15;100.00
31346;BME280;21711;49.708;18.568;2023-08-07T04:11:13;96259.63;;;14.14;100.00
31346;BME280;21711;49.708;18.568;2023-08-07T04:13:40;96262.53;;;14.00;100.00
31346;BME280;21711;49.708;18.568;2023-08-07T04:16:08;96257.66;;;14.02;100.00
31346;BME280;21711;49.708;18.568;2023-08-07T04:18:35;96259.53;;;14.01;100.00
31346;BME280;21711;49.708;18.568;2023-08-07T04:21:03;96258.59;;;14.06;100.00
31346;BME280;21711;49.708;18.568;2023-08-07T04:23:31;96256.97;;;14.14;100.00
31346;BME280;21711;49.708;18.568;2023-08-07T04:25:59;96262.75;;;14.16;100.00
31346;BME280;21711;49.708;18.568;2023-08-07T04:28:30;96265.63;;;14.32;100.00
31346;BME280;21711;49.708;18.568;2023-08-07T04:30:57;96262.34;;;14.35;100.00
31346;BME280;21711;49.708;18.568;2023-08-07T04:33:25;96255.72;;;14.41;100.00
31346;BME280;21711;49.708;18.568;2023-08-07T04:35:52;96257.09;;;14.26;100.00
31346;BME280;21711;49.708;18.568;2023-08-07T04:38:19;96259.75;;;14.26;100.00
31346;BME280;21711;49.708;18.568;2023-08-07T04:40:48;96266.28;;;14.29;100.00
31346;BME280;21711;49.708;18.568;2023-08-07T04:43:17;96258.50;;;14.24;100.00
31346;BME280;21711;49.708;18.568;2023-08-07T04:45:45;96262.28;;;14.14;100.00
31346;BME280;21711;49.708;18.568;2023-08-07T04:48:14;96262.00;;;14.06;100.00
31346;BME280;21711;49.708;18.568;2023-08-07T04:50:41;96262.66;;;14.03;100.00
31346;BME280;21711;49.708;18.568;2023-08-07T04:53:09;96264.25;;;13.96;100.00
31346;BME280;21711;49.708;18.568;2023-08-07T04:55:36;96262.59;;;14.12;100.00
31346;BME280;21711;49.708;18.568;2023-08-07T04:58:04;96266.47;;;14.24;100.00
31346;BME280;21711;49.708;18.568;2023-08-07T05:00:31;96267.16;;;14.12;100.00
31346;BME280;21711;49.708;18.568;2023-08-07T05:02:59;96261.59;;;14.26;100.00
31346;BME280;21711;49.708;18.568;2023-08-07T05:05:27;96269.72;;;14.29;100.00
31346;BME280;21711;49.708;18.568;2023-08-07T05:07:55;96274.13;;;14.25;100.00
31346;BME280;21711;49.708;18.568;2023-08-07T05:10:22;96267.84;;;14.30;100.00
31346;BME280;21711;49.708;18.568;2023-08-07T05:12:50;96271.75;;;14.32;100.00
31346;BME280;21711;49.708;18.568;2023-08-07T05:15:23;96271.31;;;14.22;100.00
31346;BME280;21711;49.708;18.568;2023-08-07T05:17:52;96266.50;;;14.15;100.00
31346;BME280;21711;49.708;18.568;2023-08-07T05:20:19;96271.19;;;14.18;100.00
31346;BME280;21711;49.708;18.568;2023-08-07T05:22:47;96280.22;;;14.26;100.00
31346;BME280;21711;49.708;18.568;2023-08-07T05:25:15;96278.00;;;14.28;100.00
31346;BME280;21711;49.708;18.568;2023-08-07T05:27:44;96273.44;;;14.37;100.00
31346;BME280;21711;49.708;18.568;2023-08-07T05:30:14;96281.94;;;14.52;100.00
31346;BME280;21711;49.708;18.568;2023-08-07T05:32:42;96289.38;;;14.67;100.00
31346;BME280;21711;49.708;18.568;2023-08-07T05:35:10;96280.78;;;14.92;100.00
31346;BME280;21711;49.708;18.568;2023-08-07T05:37:37;96282.56;;;15.09;100.00
31346;BME280;21711;49.708;18.568;2023-08-07T05:40:06;96288.19;;;15.29;100.00
31346;BME280;21711;49.708;18.568;2023-08-07T05:42:34;96288.25;;;15.20;100.00
31346;BME280;21711;49.708;18.568;2023-08-07T05:45:02;96295.66;;;15.35;100.00
31346;BME280;21711;49.708;18.568;2023-08-07T05:47:32;96291.66;;;15.75;100.00
31346;BME280;21711;49.708;18.568;2023-08-07T05:50:00;96294.59;;;15.95;100.00
31346;BME280;21711;49.708;18.568;2023-08-07T05:52:27;96296.38;;;16.41;100.00
31346;BME280;21711;49.708;18.568;2023-08-07T05:54:55;96314.09;;;17.12;100.00
31346;BME280;21711;49.708;18.568;2023-08-07T05:57:22;96304.44;;;17.35;100.00
31346;BME280;21711;49.708;18.568;2023-08-07T05:59:50;96303.56;;;17.31;100.00
31346;BME280;21711;49.708;18.568;2023-08-07T06:02:17;96308.88;;;17.03;100.00
31346;BME280;21711;49.708;18.568;2023-08-07T06:04:44;96304.69;;;16.89;100.00
31346;BME280;21711;49.708;18.568;2023-08-07T06:07:12;96308.84;;;16.62;100.00
31346;BME280;21711;49.708;18.568;2023-08-07T06:09:39;96316.38;;;16.60;100.00
31346;BME280;21711;49.708;18.568;2023-08-07T06:12:07;96320.63;;;16.36;100.00
31346;BME280;21711;49.708;18.568;2023-08-07T06:14:35;96317.31;;;16.39;100.00
31346;BME280;21711;49.708;18.568;2023-08-07T06:17:02;96319.75;;;16.44;100.00
31346;BME280;21711;49.708;18.568;2023-08-07T06:19:30;96313.63;;;16.31;100.00
31346;BME280;21711;49.708;18.568;2023-08-07T06:21:59;96313.69;;;15.97;100.00
31346;BME280;21711;49.708;18.568;2023-08-07T06:24:28;96316.13;;;15.90;100.00
31346;BME280;21711;49.708;18.568;2023-08-07T06:26:55;96317.88;;;15.86;100.00
31346;BME280;21711;49.708;18.568;2023-08-07T06:29:23;96317.72;;;15.70;100.00
31346;BME280;21711;49.708;18.568;2023-08-07T06:31:50;96325.03;;;15.73;100.00
31346;BME280;21711;49.708;18.568;2023-08-07T06:34:18;96311.19;;;15.80;100.00
31346;BME280;21711;49.708;18.568;2023-08-07T06:36:45;96323.22;;;15.52;100.00
31346;BME280;21711;49.708;18.568;2023-08-07T06:39:12;96325.38;;;15.37;100.00
31346;BME280;21711;49.708;18.568;2023-08-07T06:41:40;96326.00;;;15.22;100.00
31346;BME280;21711;49.708;18.568;2023-08-07T06:44:08;96326.88;;;15.47;100.00
31346;BME280;21711;49.708;18.568;2023-08-07T06:46:36;96326.66;;;15.52;100.00
31346;BME280;21711;49.708;18.568;2023-08-07T06:49:03;96320.34;;;15.57;100.00
31346;BME280;21711;49.708;18.568;2023-08-07T06:51:30;96325.88;;;15.52;100.00
31346;BME280;21711;49.708;18.568;2023-08-07T06:53:58;96330.59;;;15.68;100.00
31346;BME280;21711;49.708;18.568;2023-08-07T06:56:25;96326.69;;;15.65;100.00
31346;BME280;21711;49.708;18.568;2023-08-07T06:58:53;96329.81;;;15.67;100.00
31346;BME280;21711;49.708;18.568;2023-08-07T07:01:20;96323.66;;;15.88;100.00
31346;BME280;21711;49.708;18.568;2023-08-07T07:03:48;96341.38;;;16.05;100.00
31346;BME280;21711;49.708;18.568;2023-08-07T07:06:20;96338.41;;;16.32;100.00
31346;BME280;21711;49.708;18.568;2023-08-07T07:08:48;96339.41;;;16.27;100.00
31346;BME280;21711;49.708;18.568;2023-08-07T07:11:15;96344.19;;;16.46;100.00
31346;BME280;21711;49.708;18.568;2023-08-07T07:13:43;96342.31;;;16.22;100.00
31346;BME280;21711;49.708;18.568;2023-08-07T07:16:10;96338.28;;;16.15;100.00
31346;BME280;21711;49.708;18.568;2023-08-07T07:18:39;96341.53;;;16.46;100.00
31346;BME280;21711;49.708;18.568;2023-08-07T07:21:07;96348.97;;;16.53;100.00
31346;BME280;21711;49.708;18.568;2023-08-07T07:23:34;96357.84;;;16.82;100.00
31346;BME280;21711;49.708;18.568;2023-08-07T07:26:01;96360.09;;;16.92;100.00
31346;BME280;21711;49.708;18.568;2023-08-07T07:28:29;96364.41;;;17.09;100.00
31346;BME280;21711;49.708;18.568;2023-08-07T07:30:56;96365.75;;;16.91;100.00
31346;BME280;21711;49.708;18.568;2023-08-07T07:33:24;96368.88;;;16.80;100.00
31346;BME280;21711;49.708;18.568;2023-08-07T07:35:51;96375.75;;;16.94;100.00
31346;BME280;21711;49.708;18.568;2023-08-07T07:38:18;96374.09;;;17.02;100.00
31346;BME280;21711;49.708;18.568;2023-08-07T07:40:46;96381.28;;;17.26;100.00
31346;BME280;21711;49.708;18.568;2023-08-07T07:43:13;96376.31;;;17.12;100.00
31346;BME280;21711;49.708;18.568;2023-08-07T07:45:43;96385.34;;;16.95;100.00
31346;BME280;21711;49.708;18.568;2023-08-07T07:48:11;96385.44;;;16.86;100.00
31346;BME280;21711;49.708;18.568;2023-08-07T07:50:38;96384.25;;;17.08;100.00
31346;BME280;21711;49.708;18.568;2023-08-07T07:53:06;96388.13;;;17.11;100.00
31346;BME280;21711;49.708;18.568;2023-08-07T07:55:33;96398.53;;;17.70;100.00
31346;BME280;21711;49.708;18.568;2023-08-07T07:58:01;96399.72;;;18.30;100.00
31346;BME280;21711;49.708;18.568;2023-08-07T08:00:28;96406.13;;;18.57;100.00
31346;BME280;21711;49.708;18.568;2023-08-07T08:02:56;96405.84;;;19.30;100.00
31346;BME280;21711;49.708;18.568;2023-08-07T08:05:23;96401.63;;;18.77;100.00
31346;BME280;21711;49.708;18.568;2023-08-07T08:07:50;96394.47;;;18.65;100.00
31346;BME280;21711;49.708;18.568;2023-08-07T08:10:18;96396.88;;;18.55;100.00
31346;BME280;21711;49.708;18.568;2023-08-07T08:12:45;96411.28;;;19.74;100.00
31346;BME280;21711;49.708;18.568;2023-08-07T08:15:13;96402.31;;;19.66;100.00
31346;BME280;21711;49.708;18.568;2023-08-07T08:17:40;96407.97;;;19.41;100.00
31346;BME280;21711;49.708;18.568;2023-08-07T08:20:08;96419.63;;;19.68;100.00
31346;BME280;21711;49.708;18.568;2023-08-07T08:22:36;96409.03;;;19.76;100.00
31346;BME280;21711;49.708;18.568;2023-08-07T08:25:04;96414.31;;;19.92;100.00
31346;BME280;21711;49.708;18.568;2023-08-07T08:27:31;96411.91;;;19.67;100.00
31346;BME280;21711;49.708;18.568;2023-08-07T08:29:59;96422.44;;;20.15;100.00
31346;BME280;21711;49.708;18.568;2023-08-07T08:32:26;96424.06;;;20.43;100.00
31346;BME280;21711;49.708;18.568;2023-08-07T08:34:54;96420.75;;;21.00;100.00
31346;BME280;21711;49.708;18.568;2023-08-07T08:37:22;96422.84;;;21.14;100.00
31346;BME280;21711;49.708;18.568;2023-08-07T08:39:49;96437.09;;;22.49;100.00
31346;BME280;21711;49.708;18.568;2023-08-07T08:42:17;96429.09;;;22.18;100.00
31346;BME280;21711;49.708;18.568;2023-08-07T08:44:55;96440.06;;;22.40;100.00
31346;BME280;21711;49.708;18.568;2023-08-07T08:47:26;96426.06;;;21.54;100.00
31346;BME280;21711;49.708;18.568;2023-08-07T08:50:01;96429.69;;;20.34;100.00
31346;BME280;21711;49.708;18.568;2023-08-07T08:52:31;96425.88;;;19.37;100.00
31346;BME280;21711;49.708;18.568;2023-08-07T08:55:00;96434.00;;;19.40;100.00
31346;BME280;21711;49.708;18.568;2023-08-07T08:57:29;96429.59;;;18.80;100.00
31346;BME280;21711;49.708;18.568;2023-08-07T08:59:57;96432.25;;;18.96;100.00
31346;BME280;21711;49.708;18.568;2023-08-07T09:02:25;96429.50;;;18.76;100.00
31346;BME280;21711;49.708;18.568;2023-08-07T09:04:53;96436.09;;;18.47;100.00
31346;BME280;21711;49.708;18.568;2023-08-07T09:07:21;96426.47;;;18.01;100.00
31346;BME280;21711;49.708;18.568;2023-08-07T09:09:50;96435.38;;;17.77;100.00
31346;BME280;21711;49.708;18.568;2023-08-07T09:12:21;96436.81;;;17.74;100.00
31346;BME280;21711;49.708;18.568;2023-08-07T09:14:54;96431.59;;;17.37;100.00
31346;BME280;21711;49.708;18.568;2023-08-07T09:17:38;96441.09;;;17.21;100.00
31346;BME280;21711;49.708;18.568;2023-08-07T09:20:07;96436.03;;;17.45;100.00
31346;BME280;21711;49.708;18.568;2023-08-07T09:22:42;96448.00;;;17.64;100.00
31346;BME280;21711;49.708;18.568;2023-08-07T09:25:09;96449.19;;;17.38;100.00
31346;BME280;21711;49.708;18.568;2023-08-07T09:27:38;96451.63;;;16.93;100.00
31346;BME280;21711;49.708;18.568;2023-08-07T09:30:07;96452.97;;;16.74;100.00
31346;BME280;21711;49.708;18.568;2023-08-07T09:32:37;96446.06;;;16.98;100.00
31346;BME280;21711;49.708;18.568;2023-08-07T09:35:06;96448.72;;;16.73;100.00
31346;BME280;21711;49.708;18.568;2023-08-07T09:37:36;96456.50;;;16.53;100.00
31346;BME280;21711;49.708;18.568;2023-08-07T09:40:06;96450.59;;;16.48;100.00
31346;BME280;21711;49.708;18.568;2023-08-07T09:42:37;96463.50;;;16.58;100.00
31346;BME280;21711;49.708;18.568;2023-08-07T09:45:26;96457.09;;;16.25;100.00
31346;BME280;21711;49.708;18.568;2023-08-07T09:48:01;96460.03;;;16.33;100.00
31346;BME280;21711;49.708;18.568;2023-08-07T09:50:30;96457.09;;;16.25;100.00
31346;BME280;21711;49.708;18.568;2023-08-07T09:52:59;96460.59;;;16.04;100.00
31346;BME280;21711;49.708;18.568;2023-08-07T09:55:27;96466.25;;;16.03;100.00
31346;BME280;21711;49.708;18.568;2023-08-07T09:57:55;96459.28;;;15.89;100.00
31346;BME280;21711;49.708;18.568;2023-08-07T10:00:22;96466.97;;;16.12;100.00
31346;BME280;21711;49.708;18.568;2023-08-07T10:02:50;96468.72;;;16.08;100.00
31346;BME280;21711;49.708;18.568;2023-08-07T10:05:19;96469.47;;;16.30;100.00
31346;BME280;21711;49.708;18.568;2023-08-07T10:07:46;96478.00;;;16.23;100.00
31346;BME280;21711;49.708;18.568;2023-08-07T10:10:16;96475.72;;;16.13;100.00
31346;BME280;21711;49.708;18.568;2023-08-07T10:12:45;96481.38;;;16.33;100.00
31346;BME280;21711;49.708;18.568;2023-08-07T10:15:15;96492.09;;;16.58;100.00
31346;BME280;21711;49.708;18.568;2023-08-07T10:17:42;96489.44;;;16.24;100.00
31346;BME280;21711;49.708;18.568;2023-08-07T10:20:12;96497.13;;;16.25;100.00
31346;BME280;21711;49.708;18.568;2023-08-07T10:22:41;96495.34;;;16.29;100.00
31346;BME280;21711;49.708;18.568;2023-08-07T10:25:09;96493.16;;;16.44;100.00
31346;BME280;21711;49.708;18.568;2023-08-07T10:27:40;96495.53;;;16.58;100.00
31346;BME280;21711;49.708;18.568;2023-08-07T10:30:12;96501.53;;;16.55;100.00
31346;BME280;21711;49.708;18.568;2023-08-07T10:32:43;96501.50;;;16.09;100.00
31346;BME280;21711;49.708;18.568;2023-08-07T10:35:29;96507.69;;;16.00;100.00
31346;BME280;21711;49.708;18.568;2023-08-07T10:38:11;96504.09;;;15.96;100.00
31346;BME280;21711;49.708;18.568;2023-08-07T10:41:10;96504.50;;;16.07;100.00
31346;BME280;21711;49.708;18.568;2023-08-07T10:43:46;96504.72;;;16.14;100.00
31346;BME280;21711;49.708;18.568;2023-08-07T10:46:21;96508.59;;;16.04;100.00
31346;BME280;21711;49.708;18.568;2023-08-07T10:48:55;96514.06;;;16.08;100.00
31346;BME280;21711;49.708;18.568;2023-08-07T10:51:30;96515.66;;;16.22;100.00
31346;BME280;21711;49.708;18.568;2023-08-07T10:54:01;96515.38;;;16.36;100.00
31346;BME280;21711;49.708;18.568;2023-08-07T10:56:36;96509.09;;;16.53;100.00
31346;BME280;21711;49.708;18.568;2023-08-07T10:59:12;96515.25;;;16.78;100.00
31346;BME280;21711;49.708;18.568;2023-08-07T11:01:42;96517.28;;;16.94;100.00
31346;BME280;21711;49.708;18.568;2023-08-07T11:04:13;96520.91;;;17.23;100.00
31346;BME280;21711;49.708;18.568;2023-08-07T11:06:43;96518.09;;;17.32;100.00
31346;BME280;21711;49.708;18.568;2023-08-07T11:09:13;96520.44;;;17.33;100.00
31346;BME280;21711;49.708;18.568;2023-08-07T11:11:44;96515.09;;;17.33;100.00
31346;BME280;21711;49.708;18.568;2023-08-07T11:14:21;96521.34;;;17.38;100.00
31346;BME280;21711;49.708;18.568;2023-08-07T11:16:48;96514.53;;;17.40;100.00
31346;BME280;21711;49.708;18.568;2023-08-07T11:19:17;96522.66;;;17.56;100.00
31346;BME280;21711;49.708;18.568;2023-08-07T11:21:46;96515.53;;;17.11;100.00
31346;BME280;21711;49.708;18.568;2023-08-07T11:24:16;96522.84;;;17.01;100.00
31346;BME280;21711;49.708;18.568;2023-08-07T11:26:46;96527.00;;;17.24;100.00
31346;BME280;21711;49.708;18.568;2023-08-07T11:29:18;96531.09;;;16.96;100.00
31346;BME280;21711;49.708;18.568;2023-08-07T11:31:46;96535.31;;;16.97;100.00
31346;BME280;21711;49.708;18.568;2023-08-07T11:34:18;96542.59;;;16.63;100.00
31346;BME280;21711;49.708;18.568;2023-08-07T11:36:47;96558.78;;;16.24;100.00
31346;BME280;21711;49.708;18.568;2023-08-07T11:39:15;96578.63;;;15.93;100.00
31346;BME280;21711;49.708;18.568;2023-08-07T11:41:45;96586.41;;;15.07;100.00
31346;BME280;21711;49.708;18.568;2023-08-07T11:44:12;96597.03;;;15.07;100.00
31346;BME280;21711;49.708;18.568;2023-08-07T11:46:40;96596.00;;;14.82;100.00
31346;BME280;21711;49.708;18.568;2023-08-07T11:49:08;96595.63;;;15.01;100.00
31346;BME280;21711;49.708;18.568;2023-08-07T11:51:37;96601.88;;;15.05;100.00
31346;BME280;21711;49.708;18.568;2023-08-07T11:54:04;96608.41;;;15.25;100.00
31346;BME280;21711;49.708;18.568;2023-08-07T11:56:32;96619.88;;;15.17;100.00
31346;BME280;21711;49.708;18.568;2023-08-07T11:58:59;96619.28;;;15.03;100.00
31346;BME280;21711;49.708;18.568;2023-08-07T12:01:29;96621.47;;;15.09;100.00
31346;BME280;21711;49.708;18.568;2023-08-07T12:06:34;96624.78;;;14.97;100.00
31346;BME280;21711;49.708;18.568;2023-08-07T12:09:03;96632.72;;;15.06;100.00
31346;BME280;21711;49.708;18.568;2023-08-07T12:11:30;96636.09;;;14.77;100.00
31346;BME280;21711;49.708;18.568;2023-08-07T12:14:00;96637.81;;;14.64;100.00
31346;BME280;21711;49.708;18.568;2023-08-07T12:16:35;96644.22;;;14.71;100.00
31346;BME280;21711;49.708;18.568;2023-08-07T12:19:03;96642.16;;;14.68;100.00
31346;BME280;21711;49.708;18.568;2023-08-07T12:21:31;96653.44;;;14.65;100.00
31346;BME280;21711;49.708;18.568;2023-08-07T12:24:00;96649.84;;;14.43;100.00
31346;BME280;21711;49.708;18.568;2023-08-07T12:26:28;96659.38;;;14.36;100.00
31346;BME280;21711;49.708;18.568;2023-08-07T12:28:55;96662.97;;;14.31;100.00
31346;BME280;21711;49.708;18.568;2023-08-07T12:31:23;96666.56;;;14.26;100.00
31346;BME280;21711;49.708;18.568;2023-08-07T12:33:50;96657.50;;;14.27;100.00
31346;BME280;21711;49.708;18.568;2023-08-07T12:36:19;96671.09;;;14.26;100.00
31346;BME280;21711;49.708;18.568;2023-08-07T12:38:47;96672.69;;;14.36;100.00
31346;BME280;21711;49.708;18.568;2023-08-07T12:41:15;96673.59;;;14.31;100.00
31346;BME280;21711;49.708;18.568;2023-08-07T12:43:45;96678.16;;;14.30;100.00
31346;BME280;21711;49.708;18.568;2023-08-07T12:46:13;96670.44;;;14.11;100.00
31346;BME280;21711;49.708;18.568;2023-08-07T12:48:44;96675.00;;;14.19;100.00
31346;BME280;21711;49.708;18.568;2023-08-07T12:51:12;96673.47;;;14.36;100.00
31346;BME280;21711;49.708;18.568;2023-08-07T12:53:39;96664.19;;;14.07;100.00
31346;BME280;21711;49.708;18.568;2023-08-07T12:56:07;96670.75;;;14.01;100.00
31346;BME280;21711;49.708;18.568;2023-08-07T12:58:34;96670.31;;;14.25;100.00